createdAt,value
2018-10-21T00:02:02.134Z,102413.67
2018-10-21T00:04:31.720Z,102408.05
2018-10-21T00:07:01.155Z,102412.91
2018-10-21T00:09:30.806Z,102419.09
2018-10-21T00:12:00.309Z,102416.45
2018-10-21T00:14:29.633Z,102416.92
2018-10-21T00:16:59.342Z,102411.59
2018-10-21T00:19:28.715Z,102408.05
2018-10-21T00:21:58.113Z,102410.22
2018-10-21T00:24:27.557Z,102421.72
2018-10-21T00:26:57.124Z,102415.64
2018-10-21T00:29:26.468Z,102410.45
2018-10-21T00:31:56.224Z,102281.21
2018-10-21T00:34:25.531Z,102408.57
2018-10-21T00:36:54.807Z,102405.02
2018-10-21T00:39:24.496Z,102285.98
2018-10-21T00:41:53.602Z,102415.61
2018-10-21T00:44:23.883Z,102406.77
2018-10-21T00:46:53.618Z,102402.70
2018-10-21T00:49:23.399Z,102408.88
2018-10-21T00:51:52.948Z,102398.35
2018-10-21T00:54:22.943Z,102401.83
2018-10-21T00:56:52.412Z,102400.52
2018-10-21T00:59:21.999Z,102393.93
2018-10-21T01:01:52.039Z,102393.00
2018-10-21T01:04:21.425Z,102388.99
2018-10-21T01:06:50.718Z,102393.41
2018-10-21T01:09:20.339Z,102389.05
2018-10-21T01:11:49.782Z,102381.09
2018-10-21T01:14:18.877Z,102377.62
2018-10-21T01:16:48.209Z,102380.73
2018-10-21T01:19:17.608Z,102387.75
2018-10-21T01:21:46.996Z,102383.80
2018-10-21T01:24:16.485Z,102335.00
2018-10-21T01:26:46.089Z,102387.67
2018-10-21T01:29:15.477Z,102387.34
2018-10-21T01:31:44.934Z,102389.13
2018-10-21T01:34:14.461Z,102381.23
2018-10-21T01:36:43.889Z,102380.32
2018-10-21T01:39:13.466Z,102379.50
2018-10-21T01:41:42.954Z,102385.20
2018-10-21T01:44:12.245Z,102387.41
2018-10-21T01:46:41.946Z,102381.30
2018-10-21T01:49:11.547Z,102383.02
2018-10-21T01:51:40.999Z,102384.70
2018-10-21T01:54:10.531Z,102379.91
2018-10-21T01:56:40.258Z,102382.14
2018-10-21T01:59:09.764Z,102377.35
2018-10-21T02:01:39.106Z,102375.49
2018-10-21T02:04:08.848Z,102370.56
2018-10-21T02:06:38.387Z,102374.07
2018-10-21T02:09:08.167Z,102357.36
2018-10-21T02:11:37.715Z,102359.92
2018-10-21T02:14:07.400Z,102350.23
2018-10-21T02:16:36.718Z,102356.45
2018-10-21T02:19:06.362Z,102361.81
2018-10-21T02:21:35.803Z,102354.89
2018-10-21T02:24:05.036Z,102354.91
2018-10-21T02:26:34.586Z,102350.61
2018-10-21T02:29:04.453Z,102344.16
2018-10-21T02:31:33.782Z,102338.42
2018-10-21T02:34:03.177Z,102336.70
2018-10-21T02:36:32.647Z,102333.62
2018-10-21T02:39:02.096Z,102329.70
2018-10-21T02:41:44.047Z,102333.72
2018-10-21T02:44:19.794Z,102328.92
2018-10-21T02:46:50.181Z,102323.75
2018-10-21T02:49:20.337Z,102328.72
2018-10-21T02:51:54.748Z,102314.36
2018-10-21T02:54:28.488Z,102316.59
2018-10-21T02:56:57.865Z,102311.76
2018-10-21T02:59:27.416Z,102318.88
2018-10-21T03:01:56.692Z,102294.86
2018-10-21T03:04:26.096Z,102312.08
2018-10-21T03:06:55.652Z,102311.67
2018-10-21T03:09:25.239Z,102313.14
2018-10-21T03:11:54.609Z,102320.27
2018-10-21T03:14:23.971Z,102316.73
2018-10-21T03:16:53.499Z,102315.91
2018-10-21T03:19:22.933Z,102318.55
2018-10-21T03:21:52.611Z,102322.97
2018-10-21T03:24:22.308Z,102323.88
2018-10-21T03:26:51.704Z,102328.37
2018-10-21T03:29:21.296Z,102324.91
2018-10-21T03:31:51.004Z,102323.22
2018-10-21T03:34:20.558Z,102323.28
2018-10-21T03:36:49.980Z,102312.73
2018-10-21T03:39:19.818Z,102308.34
2018-10-21T03:41:49.374Z,102307.93
2018-10-21T03:44:18.935Z,102303.98
2018-10-21T03:46:48.423Z,102303.61
2018-10-21T03:49:17.789Z,102302.73
2018-10-21T03:51:47.181Z,102297.45
2018-10-21T03:54:16.883Z,102295.23
2018-10-21T03:56:46.459Z,102296.97
2018-10-21T03:59:15.946Z,102290.42
2018-10-21T04:01:45.426Z,102286.05
2018-10-21T04:04:14.914Z,102286.47
2018-10-21T04:06:44.658Z,102282.92
2018-10-21T04:09:14.050Z,102289.90
2018-10-21T04:11:43.522Z,102281.55
2018-10-21T04:14:13.139Z,102275.86
2018-10-21T04:16:42.603Z,102274.55
2018-10-21T04:19:12.018Z,102276.81
2018-10-21T04:21:41.540Z,102280.35
2018-10-21T04:24:11.045Z,102280.41
2018-10-21T04:26:40.528Z,102274.28
2018-10-21T04:29:10.432Z,102279.09
2018-10-21T04:31:39.872Z,102269.86
2018-10-21T04:34:09.556Z,102262.42
2018-10-21T04:36:39.300Z,102264.63
2018-10-21T04:39:19.463Z,102262.03
2018-10-21T04:41:49.356Z,102255.81
2018-10-21T04:47:18.920Z,102245.25
2018-10-21T04:49:48.444Z,102248.64
2018-10-21T04:52:17.809Z,102251.28
2018-10-21T04:54:47.208Z,102248.64
2018-10-21T04:57:16.699Z,102244.25
2018-10-21T04:59:46.094Z,102241.57
2018-10-21T05:02:15.620Z,102243.37
2018-10-21T05:04:45.310Z,102233.28
2018-10-21T05:07:14.705Z,102234.13
2018-10-21T05:09:44.218Z,102239.78
2018-10-21T05:12:13.637Z,102227.12
2018-10-21T05:14:43.153Z,102134.57
2018-10-21T05:17:12.758Z,102225.85
2018-10-21T05:19:41.885Z,102221.52
2018-10-21T05:22:11.380Z,102227.69
2018-10-21T05:24:40.681Z,102225.00
2018-10-21T05:27:10.035Z,102228.12
2018-10-21T05:29:39.566Z,102229.95
2018-10-21T05:32:09.080Z,102227.79
2018-10-21T05:34:38.397Z,102230.44
2018-10-21T05:37:07.934Z,102217.70
2018-10-21T05:39:37.306Z,102216.77
2018-10-21T05:42:06.606Z,102217.23
2018-10-21T05:44:35.988Z,102208.05
2018-10-21T05:47:05.523Z,102208.05
2018-10-21T05:49:34.721Z,102205.88
2018-10-21T05:52:04.683Z,102209.46
2018-10-21T05:54:38.161Z,102205.93
2018-10-21T05:57:07.558Z,102202.44
2018-10-21T05:59:37.084Z,102200.70
2018-10-21T06:02:06.682Z,102205.09
2018-10-21T06:04:35.977Z,102202.49
2018-10-21T06:07:05.939Z,102201.64
2018-10-21T06:09:35.188Z,102204.28
2018-10-21T06:12:04.809Z,102208.67
2018-10-21T06:14:34.478Z,102208.28
2018-10-21T06:17:11.034Z,102208.70
2018-10-21T06:19:43.129Z,102208.67
2018-10-21T06:22:12.746Z,102205.64
2018-10-21T06:24:42.308Z,102212.28
2018-10-21T06:27:11.501Z,102205.69
2018-10-21T06:29:40.925Z,102206.58
2018-10-21T06:32:10.454Z,102206.58
2018-10-21T06:34:39.741Z,102207.05
2018-10-21T06:37:09.094Z,102210.13
2018-10-21T06:39:38.526Z,102209.27
2018-10-21T06:42:07.990Z,102212.38
2018-10-21T06:44:37.208Z,102211.05
2018-10-21T06:47:06.437Z,102211.48
2018-10-21T06:49:35.923Z,102207.09
2018-10-21T06:52:05.295Z,102205.39
2018-10-21T06:54:34.791Z,102200.96
2018-10-21T06:57:04.334Z,102213.30
2018-10-21T06:59:33.699Z,102205.00
2018-10-21T07:02:04.098Z,102209.82
2018-10-21T07:04:33.515Z,102204.58
2018-10-21T07:07:03.683Z,102202.41
2018-10-21T07:09:33.198Z,102208.97
2018-10-21T07:12:02.295Z,102188.61
2018-10-21T07:14:31.915Z,102216.97
2018-10-21T07:17:01.522Z,102213.48
2018-10-21T07:19:30.857Z,102217.86
2018-10-21T07:22:00.371Z,102218.72
2018-10-21T07:24:30.122Z,102210.37
2018-10-21T07:26:59.540Z,102212.58
2018-10-21T07:29:29.359Z,102214.33
2018-10-21T07:31:59.132Z,102209.94
2018-10-21T07:34:28.983Z,102212.55
2018-10-21T07:36:58.597Z,102210.37
2018-10-21T07:39:28.085Z,102208.63
2018-10-21T07:41:57.416Z,102216.63
2018-10-21T07:44:27.128Z,102210.45
2018-10-21T07:46:56.777Z,102222.38
2018-10-21T07:49:26.441Z,102220.63
2018-10-21T07:51:56.056Z,102214.16
2018-10-21T07:54:26.028Z,102214.70
2018-10-21T07:56:55.754Z,102228.84
2018-10-21T07:59:25.199Z,102223.55
2018-10-21T08:01:54.689Z,102222.70
2018-10-21T08:04:24.765Z,102224.45
2018-10-21T08:07:05.640Z,102225.34
2018-10-21T08:09:35.137Z,102228.81
2018-10-21T08:12:04.494Z,102220.84
2018-10-21T08:14:35.016Z,102217.77
2018-10-21T08:17:04.678Z,102223.52
2018-10-21T08:19:34.226Z,102227.02
2018-10-21T08:22:04.474Z,102217.34
2018-10-21T08:24:33.575Z,102221.77
2018-10-21T08:27:03.158Z,102224.38
2018-10-21T08:29:32.680Z,102219.52
2018-10-21T08:32:02.067Z,102224.73
2018-10-21T08:34:31.337Z,102214.62
2018-10-21T08:37:01.026Z,102216.41
2018-10-21T08:39:30.399Z,102216.41
2018-10-21T08:41:59.727Z,102211.56
2018-10-21T08:44:29.239Z,102207.59
2018-10-21T08:46:58.399Z,102202.34
2018-10-21T08:49:27.970Z,102199.73
2018-10-21T08:51:57.687Z,102191.78
2018-10-21T08:54:27.017Z,102191.31
2018-10-21T08:56:56.510Z,102186.49
2018-10-21T08:59:26.322Z,102185.20
2018-10-21T09:01:55.764Z,102185.64
2018-10-21T09:04:25.518Z,102190.06
2018-10-21T09:06:55.187Z,102198.91
2018-10-21T09:09:24.835Z,102195.41
2018-10-21T09:11:54.912Z,102184.41
2018-10-21T09:14:24.410Z,102180.02
2018-10-21T09:16:53.886Z,102177.80
2018-10-21T09:19:23.905Z,102173.41
2018-10-21T09:21:53.952Z,102163.27
2018-10-21T09:24:23.223Z,102166.34
2018-10-21T09:26:52.882Z,102168.13
2018-10-21T09:29:22.523Z,102168.15
2018-10-21T09:31:52.081Z,102157.61
2018-10-21T09:34:21.809Z,102078.88
2018-10-21T09:36:51.798Z,102154.12
2018-10-21T09:39:21.219Z,102157.23
2018-10-21T09:41:50.609Z,102162.06
2018-10-21T09:44:20.217Z,102162.05
2018-10-21T09:46:49.964Z,102158.61
2018-10-21T09:49:19.484Z,102157.71
2018-10-21T09:51:49.418Z,102164.78
2018-10-21T09:54:19.268Z,102145.79
2018-10-21T09:56:48.602Z,102143.58
2018-10-21T09:59:18.197Z,102140.91
2018-10-21T10:01:52.679Z,102137.40
2018-10-21T10:04:22.625Z,102128.55
2018-10-21T10:06:51.992Z,102125.94
2018-10-21T10:09:21.514Z,102125.53
2018-10-21T10:11:51.349Z,102126.88
2018-10-21T10:14:20.917Z,102129.52
2018-10-21T10:16:50.382Z,102128.66
2018-10-21T10:19:20.261Z,102129.95
2018-10-21T10:21:49.473Z,102131.27
2018-10-21T10:24:18.927Z,102127.77
2018-10-21T10:26:48.528Z,102122.48
2018-10-21T10:29:17.820Z,101966.91
2018-10-21T10:31:47.179Z,102110.55
2018-10-21T10:34:16.841Z,102103.92
2018-10-21T10:36:46.358Z,102107.45
2018-10-21T10:39:15.765Z,102104.36
2018-10-21T10:41:45.475Z,102101.27
2018-10-21T10:44:15.030Z,102101.70
2018-10-21T10:46:44.490Z,102100.37
2018-10-21T10:49:14.283Z,102095.11
2018-10-21T10:51:43.593Z,102090.27
2018-10-21T10:54:13.062Z,102089.84
2018-10-21T10:56:42.807Z,102089.82
2018-10-21T10:59:12.216Z,102090.25
2018-10-21T11:01:41.615Z,102080.56
2018-10-21T11:04:11.498Z,102088.06
2018-10-21T11:06:40.761Z,102082.77
2018-10-21T11:09:11.049Z,102078.81
2018-10-21T11:11:40.617Z,102068.69
2018-10-21T11:14:09.826Z,102046.59
2018-10-21T11:16:39.082Z,102066.48
2018-10-21T11:19:08.649Z,102060.33
2018-10-21T11:21:38.279Z,102064.29
2018-10-21T11:24:07.665Z,102070.49
2018-10-21T11:26:37.380Z,102064.29
2018-10-21T11:29:06.576Z,102061.63
2018-10-21T11:31:35.758Z,102054.56
2018-10-21T11:34:05.305Z,102045.75
2018-10-21T11:36:34.712Z,102041.33
2018-10-21T11:39:05.172Z,102035.58
2018-10-21T11:41:34.690Z,102035.17
2018-10-21T11:44:03.935Z,102033.44
2018-10-21T11:46:33.394Z,102033.87
2018-10-21T11:49:02.953Z,102040.50
2018-10-21T11:51:32.386Z,102040.50
2018-10-21T11:54:01.831Z,102033.91
2018-10-21T11:56:32.122Z,102039.17
2018-10-21T11:59:01.388Z,102037.91
2018-10-21T12:01:30.967Z,102022.94
2018-10-21T12:04:00.715Z,102023.37
2018-10-21T12:06:29.950Z,102024.70
2018-10-21T12:08:59.167Z,102024.28
2018-10-21T12:11:28.827Z,102009.75
2018-10-21T12:13:58.343Z,102014.55
2018-10-21T12:16:27.877Z,102013.24
2018-10-21T12:18:57.819Z,102013.27
2018-10-21T12:21:27.106Z,102000.50
2018-10-21T12:23:56.791Z,102004.46
2018-10-21T12:26:26.693Z,102000.07
2018-10-21T12:28:56.419Z,101985.95
2018-10-21T12:31:25.891Z,101982.84
2018-10-21T12:33:56.029Z,101974.05
2018-10-21T12:36:25.511Z,101968.30
2018-10-21T12:38:54.973Z,101966.09
2018-10-21T12:41:24.753Z,101959.94
2018-10-21T12:43:54.310Z,101964.80
2018-10-21T12:46:23.993Z,101962.14
2018-10-21T12:48:53.849Z,101959.52
2018-10-21T12:51:23.364Z,101926.86
2018-10-21T12:53:53.122Z,101946.72
2018-10-21T12:56:22.781Z,101937.00
2018-10-21T12:58:51.989Z,101942.77
2018-10-21T13:01:21.500Z,101948.91
2018-10-21T13:03:51.186Z,101950.67
2018-10-21T13:06:20.477Z,101940.98
2018-10-21T13:08:49.924Z,101940.99
2018-10-21T13:11:19.447Z,101937.45
2018-10-21T13:13:49.025Z,101923.34
2018-10-21T13:16:18.657Z,101926.00
2018-10-21T13:18:48.479Z,101929.07
2018-10-21T13:21:17.735Z,101926.02
2018-10-21T13:23:47.111Z,101920.70
2018-10-21T13:26:16.792Z,101916.70
2018-10-21T13:28:46.080Z,101939.20
2018-10-21T13:31:15.903Z,101917.61
2018-10-21T13:33:45.621Z,101919.39
2018-10-21T13:36:15.026Z,101923.78
2018-10-21T13:38:44.685Z,101929.08
2018-10-21T13:41:15.031Z,101922.94
2018-10-21T13:43:44.534Z,101911.91
2018-10-21T13:46:14.111Z,101906.62
2018-10-21T13:48:43.857Z,101899.55
2018-10-21T13:51:13.271Z,101890.73
2018-10-21T13:53:42.881Z,101889.88
2018-10-21T13:56:12.758Z,101895.17
2018-10-21T13:58:42.193Z,101892.52
2018-10-21T14:01:11.919Z,101895.17
2018-10-21T14:03:41.743Z,101888.96
2018-10-21T14:06:11.298Z,101886.33
2018-10-21T14:08:40.868Z,101877.50
2018-10-21T14:11:11.018Z,101873.55
2018-10-21T14:13:40.309Z,101873.11
2018-10-21T14:16:09.742Z,101866.05
2018-10-21T14:18:39.612Z,101854.15
2018-10-21T14:21:09.210Z,101859.89
2018-10-21T14:23:38.684Z,101848.87
2018-10-21T14:26:08.617Z,101845.77
2018-10-21T14:28:37.915Z,101844.00
2018-10-21T14:31:07.656Z,101828.12
2018-10-21T14:33:37.550Z,101827.25
2018-10-21T14:36:07.112Z,101818.88
2018-10-21T14:38:36.512Z,101817.55
2018-10-21T14:41:06.313Z,101814.01
2018-10-21T14:43:35.650Z,101807.84
2018-10-21T14:46:05.184Z,101794.62
2018-10-21T14:48:34.869Z,101805.66
2018-10-21T14:51:04.255Z,101803.43
2018-10-21T14:53:33.576Z,101799.48
2018-10-21T14:56:03.561Z,101797.72
2018-10-21T14:58:32.932Z,101792.86
2018-10-21T15:01:02.351Z,101791.97
2018-10-21T15:03:32.012Z,101778.73
2018-10-21T15:06:01.366Z,101767.28
2018-10-21T15:08:30.628Z,101572.20
2018-10-21T15:11:00.200Z,101761.11
2018-10-21T15:13:29.727Z,101762.87
2018-10-21T15:15:59.262Z,101751.80
2018-10-21T15:18:29.103Z,101741.66
2018-10-21T15:20:58.235Z,101736.35
2018-10-21T15:23:27.720Z,101740.76
2018-10-21T15:25:57.739Z,101734.59
2018-10-21T15:28:27.034Z,101727.52
2018-10-21T15:30:56.305Z,101727.55
2018-10-21T15:33:26.038Z,101721.81
2018-10-21T15:35:55.539Z,101726.20
2018-10-21T15:38:24.841Z,101731.50
2018-10-21T15:40:54.988Z,101727.11
2018-10-21T15:46:57.583Z,101736.38
2018-10-21T15:49:26.978Z,101731.53
2018-10-21T15:51:56.247Z,101728.43
2018-10-21T15:54:25.823Z,101723.55
2018-10-21T15:56:55.140Z,101718.71
2018-10-21T15:59:24.482Z,101725.78
2018-10-21T16:01:54.050Z,101722.27
2018-10-21T16:04:24.481Z,101732.41
2018-10-21T16:06:54.369Z,101717.84
2018-10-21T16:09:24.846Z,101704.61
2018-10-21T16:11:54.100Z,101705.46
2018-10-21T16:14:23.695Z,101705.94
2018-10-21T16:16:53.197Z,101713.41
2018-10-21T16:19:22.508Z,101715.20
2018-10-21T16:21:52.107Z,101712.97
2018-10-21T16:24:22.860Z,101713.42
2018-10-21T16:26:52.338Z,101724.87
2018-10-21T16:29:21.929Z,101711.64
2018-10-21T16:31:51.984Z,101585.35
2018-10-21T16:34:21.602Z,101697.54
2018-10-21T16:36:51.435Z,101676.42
2018-10-21T16:39:21.392Z,101702.83
2018-10-21T16:41:51.006Z,101708.13
2018-10-21T16:44:20.786Z,101705.47
2018-10-21T16:46:50.602Z,101704.59
2018-10-21T16:49:20.214Z,101705.47
2018-10-21T16:51:49.979Z,101696.64
2018-10-21T16:54:19.823Z,101710.75
2018-10-21T16:56:49.306Z,101699.73
2018-10-21T16:59:19.428Z,101687.80
2018-10-21T17:01:48.872Z,101688.26
2018-10-21T17:04:18.387Z,101689.58
2018-10-21T17:06:48.477Z,101692.68
2018-10-21T17:09:18.221Z,101696.20
2018-10-21T17:11:47.711Z,101687.37
2018-10-21T17:14:17.352Z,101676.80
2018-10-21T17:16:47.062Z,101620.41
2018-10-21T17:19:16.616Z,101672.82
2018-10-21T17:21:46.419Z,101676.33
2018-10-21T17:24:15.816Z,101671.04
2018-10-21T17:26:45.174Z,101670.58
2018-10-21T17:29:14.729Z,101678.05
2018-10-21T17:31:44.083Z,101691.30
2018-10-21T17:34:13.468Z,101691.30
2018-10-21T17:36:43.021Z,101677.20
2018-10-21T17:39:14.957Z,101670.13
2018-10-21T17:41:44.482Z,101663.96
2018-10-21T17:44:13.879Z,101663.09
2018-10-21T17:46:43.504Z,101663.96
2018-10-21T17:49:12.955Z,101662.19
2018-10-21T17:51:42.297Z,101661.31
2018-10-21T17:54:11.940Z,101658.22
2018-10-21T17:57:14.174Z,101656.89
2018-10-21T17:59:43.731Z,101653.38
2018-10-21T18:02:13.235Z,101658.21
2018-10-21T18:04:42.727Z,101656.02
2018-10-21T18:07:12.112Z,101660.40
2018-10-21T18:09:41.687Z,101654.69
2018-10-21T18:12:11.079Z,101643.65
2018-10-21T18:14:40.396Z,101646.31
2018-10-21T18:17:10.023Z,101644.52
2018-10-21T18:19:39.459Z,101642.31
2018-10-21T18:22:09.348Z,101637.02
2018-10-21T18:24:39.707Z,101637.89
2018-10-21T18:27:09.371Z,101643.18
2018-10-21T18:29:38.821Z,101637.47
2018-10-21T18:32:08.469Z,101631.28
2018-10-21T18:34:37.910Z,101624.19
2018-10-21T18:37:08.105Z,101626.83
2018-10-21T18:39:37.987Z,101627.70
2018-10-21T18:42:07.558Z,101626.82
2018-10-21T18:44:36.926Z,101620.66
2018-10-21T18:47:07.045Z,101618.87
2018-10-21T18:49:37.493Z,101618.87
2018-10-21T18:52:06.823Z,101607.81
2018-10-21T18:54:36.290Z,101595.44
2018-10-21T18:57:07.138Z,101594.56
2018-10-21T18:59:36.417Z,101601.59
2018-10-21T19:02:06.417Z,101589.27
2018-10-21T19:04:35.908Z,101586.17
2018-10-21T19:07:06.600Z,101593.23
2018-10-21T19:09:36.406Z,101605.56
2018-10-21T19:12:05.736Z,101591.05
2018-10-21T19:14:35.165Z,101595.02
2018-10-21T19:17:04.952Z,101597.67
2018-10-21T19:19:34.169Z,101595.90
2018-10-21T19:22:04.214Z,101597.66
2018-10-21T19:24:34.012Z,101586.18
2018-10-21T19:27:03.575Z,101589.75
2018-10-21T19:29:32.936Z,101583.58
2018-10-21T19:32:02.515Z,101583.58
2018-10-21T19:34:31.990Z,101592.41
2018-10-21T19:37:01.338Z,101590.20
2018-10-21T19:39:30.970Z,101588.02
2018-10-21T19:42:00.384Z,101591.59
2018-10-21T19:44:29.694Z,101580.59
2018-10-21T19:46:59.583Z,101581.08
2018-10-21T19:49:29.066Z,101577.52
2018-10-21T19:51:58.736Z,101576.67
2018-10-21T19:54:28.400Z,101576.28
2018-10-21T19:56:57.687Z,101579.37
2018-10-21T19:59:27.232Z,101570.98
2018-10-21T20:01:57.129Z,101567.89
2018-10-21T20:04:26.259Z,101570.55
2018-10-21T20:06:55.640Z,101571.44
2018-10-21T20:09:25.402Z,101563.51
2018-10-21T20:11:54.831Z,101566.16
2018-10-21T20:14:24.273Z,101575.00
2018-10-21T20:16:53.998Z,101579.84
2018-10-21T20:19:23.434Z,101578.52
2018-10-21T20:21:52.901Z,101587.38
2018-10-21T20:24:22.766Z,101573.23
2018-10-21T20:26:52.153Z,101574.57
2018-10-21T20:29:21.633Z,101578.98
2018-10-21T20:31:52.361Z,101582.08
2018-10-21T20:34:22.655Z,101591.77
2018-10-21T20:36:52.440Z,101596.19
2018-10-21T20:39:22.157Z,101606.78
2018-10-21T20:41:51.705Z,101618.22
2018-10-21T20:44:21.470Z,101627.50
2018-10-21T20:46:51.293Z,101602.38
2018-10-21T20:49:21.553Z,101587.39
2018-10-21T20:51:51.514Z,101592.70
2018-10-21T20:54:21.162Z,101579.92
2018-10-21T20:56:50.731Z,101580.83
2018-10-21T20:59:20.389Z,101569.38
2018-10-21T21:01:49.934Z,101564.51
2018-10-21T21:04:19.333Z,101570.70
2018-10-21T21:06:48.801Z,101578.20
2018-10-21T21:09:18.226Z,101583.02
2018-10-21T21:11:47.612Z,101588.33
2018-10-21T21:14:17.210Z,101587.90
2018-10-21T21:16:46.782Z,101598.44
2018-10-21T21:19:16.086Z,101605.51
2018-10-21T21:21:45.423Z,101601.58
2018-10-21T21:24:15.045Z,101605.96
2018-10-21T21:26:44.383Z,101610.41
2018-10-21T21:29:14.017Z,101605.09
2018-10-21T21:31:43.804Z,101616.13
2018-10-21T21:34:13.141Z,101619.64
2018-10-21T21:36:42.754Z,101620.08
2018-10-21T21:39:13.684Z,101625.34
2018-10-21T21:41:44.402Z,101627.13
2018-10-21T21:44:13.819Z,101631.09
2018-10-21T21:46:43.726Z,101622.73
2018-10-21T21:49:14.102Z,101635.09
2018-10-21T21:51:43.538Z,101636.87
2018-10-21T21:54:14.183Z,101645.67
2018-10-21T21:56:45.074Z,101658.92
2018-10-21T21:59:14.675Z,101654.50
2018-10-21T22:01:44.376Z,101646.57
2018-10-21T22:04:13.695Z,101662.91
2018-10-21T22:06:43.212Z,101652.78
2018-10-21T22:09:13.637Z,101667.73
2018-10-21T22:11:42.922Z,101655.86
2018-10-21T22:14:12.147Z,101666.44
2018-10-21T22:16:41.900Z,101666.89
2018-10-21T22:19:11.144Z,101655.44
2018-10-21T22:21:40.291Z,101653.67
2018-10-21T22:24:10.421Z,101651.91
2018-10-21T22:26:39.912Z,101652.80
2018-10-21T22:29:09.182Z,101663.81
2018-10-21T22:31:38.853Z,101649.70
2018-10-21T22:34:08.085Z,101664.23
2018-10-21T22:36:37.362Z,101653.67
2018-10-21T22:39:07.912Z,101661.59
2018-10-21T22:41:37.548Z,101662.45
2018-10-21T22:44:06.975Z,101670.36
2018-10-21T22:46:36.670Z,101650.56
2018-10-21T22:49:06.445Z,101649.72
2018-10-21T22:51:35.885Z,101643.55
2018-10-21T22:54:05.740Z,101656.31
2018-10-21T22:56:35.085Z,101673.05
2018-10-21T22:59:04.463Z,101649.27
2018-10-21T23:01:34.198Z,101664.20
2018-10-21T23:04:03.322Z,101651.04
2018-10-21T23:06:32.628Z,101652.30
2018-10-21T23:09:02.197Z,101650.98
2018-10-21T23:11:31.656Z,101660.67
2018-10-21T23:14:00.990Z,101663.31
2018-10-21T23:16:30.797Z,101658.89
2018-10-21T23:19:10.384Z,101660.66
2018-10-21T23:21:40.332Z,101660.65
2018-10-21T23:24:09.605Z,101671.19
2018-10-21T23:26:39.104Z,101673.36
2018-10-21T23:29:08.733Z,101672.05
2018-10-21T23:31:38.305Z,101662.34
2018-10-21T23:34:07.725Z,101668.95
2018-10-21T23:36:37.415Z,101673.78
2018-10-21T23:39:07.531Z,101675.99
2018-10-21T23:41:36.909Z,101673.38
2018-10-21T23:44:06.588Z,101675.55
2018-10-21T23:46:35.780Z,101674.66
2018-10-21T23:49:05.000Z,101679.03
2018-10-21T23:51:34.781Z,101692.20
2018-10-21T23:54:04.134Z,101699.30
2018-10-21T23:56:33.482Z,101690.50
2018-10-21T23:59:03.083Z,101689.16
